sensor_id;sensor_type;location;lat;lon;timestamp;pressure;altitude;pressure_sealevel;temperature;humidity
79131;BME280;72396;45.194;9.142;2024-03-25T00:01:03;99977.06;;;13.57;21.88
79131;BME280;72396;45.194;9.142;2024-03-25T00:03:29;99980.78;;;13.54;21.45
79131;BME280;72396;45.194;9.142;2024-03-25T00:05:54;99984.00;;;13.59;21.94
79131;BME280;72396;45.194;9.142;2024-03-25T00:08:20;99979.22;;;13.50;23.10
79131;BME280;72396;45.194;9.142;2024-03-25T00:10:45;99981.09;;;13.48;23.63
79131;BME280;72396;45.194;9.142;2024-03-25T00:13:10;99972.38;;;13.46;23.35
79131;BME280;72396;45.194;9.142;2024-03-25T00:15:36;99991.19;;;13.57;23.55
79131;BME280;72396;45.194;9.142;2024-03-25T00:18:03;99986.50;;;13.46;23.81
79131;BME280;72396;45.194;9.142;2024-03-25T00:20:29;99987.66;;;13.41;23.91
79131;BME280;72396;45.194;9.142;2024-03-25T00:22:54;99992.03;;;13.42;24.27
79131;BME280;72396;45.194;9.142;2024-03-25T00:25:19;99993.56;;;13.30;24.56
79131;BME280;72396;45.194;9.142;2024-03-25T00:27:45;99998.88;;;13.30;24.98
79131;BME280;72396;45.194;9.142;2024-03-25T00:30:11;99987.16;;;13.18;25.51
79131;BME280;72396;45.194;9.142;2024-03-25T00:32:36;99996.22;;;13.30;25.94
79131;BME280;72396;45.194;9.142;2024-03-25T00:35:02;99990.50;;;13.21;27.26
79131;BME280;72396;45.194;9.142;2024-03-25T00:37:27;99990.59;;;13.20;27.34
79131;BME280;72396;45.194;9.142;2024-03-25T00:39:53;99997.16;;;13.13;28.31
79131;BME280;72396;45.194;9.142;2024-03-25T00:42:19;100003.13;;;13.00;29.04
79131;BME280;72396;45.194;9.142;2024-03-25T00:44:44;100005.69;;;12.86;28.95
79131;BME280;72396;45.194;9.142;2024-03-25T00:47:10;100005.47;;;12.73;29.24
79131;BME280;72396;45.194;9.142;2024-03-25T00:49:35;100008.38;;;12.68;29.56
79131;BME280;72396;45.194;9.142;2024-03-25T00:52:01;100010.22;;;12.50;30.40
79131;BME280;72396;45.194;9.142;2024-03-25T00:54:27;100006.09;;;12.44;30.71
79131;BME280;72396;45.194;9.142;2024-03-25T00:56:52;99997.63;;;12.38;30.12
79131;BME280;72396;45.194;9.142;2024-03-25T00:59:18;100008.97;;;12.40;30.66
79131;BME280;72396;45.194;9.142;2024-03-25T01:01:44;100006.56;;;12.35;31.63
79131;BME280;72396;45.194;9.142;2024-03-25T01:04:09;100002.47;;;12.29;31.79
79131;BME280;72396;45.194;9.142;2024-03-25T01:06:35;100000.91;;;12.25;31.71
79131;BME280;72396;45.194;9.142;2024-03-25T01:09:00;99997.72;;;12.18;32.23
79131;BME280;72396;45.194;9.142;2024-03-25T01:11:25;99994.78;;;12.07;32.79
79131;BME280;72396;45.194;9.142;2024-03-25T01:13:51;99995.03;;;12.02;32.88
79131;BME280;72396;45.194;9.142;2024-03-25T01:16:16;99992.66;;;11.96;33.16
79131;BME280;72396;45.194;9.142;2024-03-25T01:18:42;99994.75;;;11.89;33.20
79131;BME280;72396;45.194;9.142;2024-03-25T01:21:07;99998.47;;;11.85;33.09
79131;BME280;72396;45.194;9.142;2024-03-25T01:23:32;99996.25;;;11.77;33.06
79131;BME280;72396;45.194;9.142;2024-03-25T01:25:58;100001.53;;;11.77;33.03
79131;BME280;72396;45.194;9.142;2024-03-25T01:28:23;99980.91;;;11.66;33.09
79131;BME280;72396;45.194;9.142;2024-03-25T01:30:49;99995.53;;;11.74;33.85
79131;BME280;72396;45.194;9.142;2024-03-25T01:33:14;99984.31;;;11.69;33.96
79131;BME280;72396;45.194;9.142;2024-03-25T01:35:40;99975.78;;;11.63;34.05
79131;BME280;72396;45.194;9.142;2024-03-25T01:38:05;99984.31;;;11.69;34.06
79131;BME280;72396;45.194;9.142;2024-03-25T01:40:31;99982.53;;;11.51;34.07
79131;BME280;72396;45.194;9.142;2024-03-25T01:43:02;99989.56;;;11.51;34.91
79131;BME280;72396;45.194;9.142;2024-03-25T01:45:35;99992.06;;;11.36;34.92
79131;BME280;72396;45.194;9.142;2024-03-25T01:48:08;99989.53;;;11.33;35.54
79131;BME280;72396;45.194;9.142;2024-03-25T01:50:37;99975.78;;;11.27;35.69
79131;BME280;72396;45.194;9.142;2024-03-25T01:53:04;99989.19;;;11.41;35.21
79131;BME280;72396;45.194;9.142;2024-03-25T01:55:31;99992.13;;;11.35;35.75
79131;BME280;72396;45.194;9.142;2024-03-25T01:57:57;99985.03;;;11.35;35.53
79131;BME280;72396;45.194;9.142;2024-03-25T02:00:24;99999.03;;;11.37;35.58
79131;BME280;72396;45.194;9.142;2024-03-25T02:02:50;99988.59;;;11.34;35.68
79131;BME280;72396;45.194;9.142;2024-03-25T02:05:17;99986.91;;;11.33;36.05
79131;BME280;72396;45.194;9.142;2024-03-25T02:07:44;99981.00;;;11.28;35.42
79131;BME280;72396;45.194;9.142;2024-03-25T02:10:09;99971.75;;;11.19;36.58
79131;BME280;72396;45.194;9.142;2024-03-25T02:12:36;99978.38;;;11.28;36.29
79131;BME280;72396;45.194;9.142;2024-03-25T02:15:02;99975.94;;;11.23;37.00
79131;BME280;72396;45.194;9.142;2024-03-25T02:17:27;99960.47;;;11.16;36.38
79131;BME280;72396;45.194;9.142;2024-03-25T02:19:53;99968.38;;;11.16;36.81
79131;BME280;72396;45.194;9.142;2024-03-25T02:22:18;99960.56;;;11.14;36.68
79131;BME280;72396;45.194;9.142;2024-03-25T02:24:45;99942.66;;;11.02;37.31
79131;BME280;72396;45.194;9.142;2024-03-25T02:27:12;99949.28;;;11.11;36.75
79131;BME280;72396;45.194;9.142;2024-03-25T02:29:40;99937.59;;;10.97;36.76
79131;BME280;72396;45.194;9.142;2024-03-25T02:32:07;99946.53;;;10.94;37.17
79131;BME280;72396;45.194;9.142;2024-03-25T02:34:43;99953.44;;;10.97;37.05
79131;BME280;72396;45.194;9.142;2024-03-25T02:37:10;99939.03;;;10.85;37.78
79131;BME280;72396;45.194;9.142;2024-03-25T02:39:36;99960.88;;;10.89;37.54
79131;BME280;72396;45.194;9.142;2024-03-25T02:42:02;99953.16;;;10.84;37.56
79131;BME280;72396;45.194;9.142;2024-03-25T02:44:27;99945.31;;;10.83;37.39
79131;BME280;72396;45.194;9.142;2024-03-25T02:46:53;99939.34;;;10.79;38.35
79131;BME280;72396;45.194;9.142;2024-03-25T02:49:19;99930.75;;;10.74;37.83
79131;BME280;72396;45.194;9.142;2024-03-25T02:51:45;99925.34;;;10.77;37.96
79131;BME280;72396;45.194;9.142;2024-03-25T02:54:10;99924.34;;;10.79;37.52
79131;BME280;72396;45.194;9.142;2024-03-25T02:56:36;99929.63;;;10.79;37.87
79131;BME280;72396;45.194;9.142;2024-03-25T02:59:02;99934.63;;;10.66;37.66
79131;BME280;72396;45.194;9.142;2024-03-25T03:01:27;99925.06;;;10.64;38.10
79131;BME280;72396;45.194;9.142;2024-03-25T03:03:52;99928.78;;;10.60;38.03
79131;BME280;72396;45.194;9.142;2024-03-25T03:06:18;99935.75;;;10.61;38.10
79131;BME280;72396;45.194;9.142;2024-03-25T03:08:44;99950.34;;;10.68;38.23
79131;BME280;72396;45.194;9.142;2024-03-25T03:11:09;99956.72;;;10.64;38.64
79131;BME280;72396;45.194;9.142;2024-03-25T03:13:34;99951.88;;;10.55;38.66
79131;BME280;72396;45.194;9.142;2024-03-25T03:16:00;99956.28;;;10.54;39.15
79131;BME280;72396;45.194;9.142;2024-03-25T03:18:25;99956.47;;;10.49;39.16
79131;BME280;72396;45.194;9.142;2024-03-25T03:20:50;99958.41;;;10.46;39.87
79131;BME280;72396;45.194;9.142;2024-03-25T03:23:16;99954.97;;;10.44;40.24
79131;BME280;72396;45.194;9.142;2024-03-25T03:25:42;99960.31;;;10.42;40.72
79131;BME280;72396;45.194;9.142;2024-03-25T03:28:08;99957.91;;;10.36;40.46
79131;BME280;72396;45.194;9.142;2024-03-25T03:30:33;99957.28;;;10.31;40.54
79131;BME280;72396;45.194;9.142;2024-03-25T03:32:58;99963.59;;;10.27;40.77
79131;BME280;72396;45.194;9.142;2024-03-25T03:35:24;99953.34;;;10.20;40.88
79131;BME280;72396;45.194;9.142;2024-03-25T03:37:49;99946.47;;;10.16;40.44
79131;BME280;72396;45.194;9.142;2024-03-25T03:40:14;99932.84;;;10.06;40.69
79131;BME280;72396;45.194;9.142;2024-03-25T03:42:40;99948.34;;;10.14;40.35
79131;BME280;72396;45.194;9.142;2024-03-25T03:45:06;99940.03;;;10.03;40.44
79131;BME280;72396;45.194;9.142;2024-03-25T03:47:32;99944.50;;;10.01;40.57
79131;BME280;72396;45.194;9.142;2024-03-25T03:49:57;99952.16;;;10.07;40.69
79131;BME280;72396;45.194;9.142;2024-03-25T03:52:23;99938.41;;;10.00;40.28
79131;BME280;72396;45.194;9.142;2024-03-25T03:54:48;99953.16;;;10.04;39.81
79131;BME280;72396;45.194;9.142;2024-03-25T03:57:14;99945.72;;;9.93;40.45
79131;BME280;72396;45.194;9.142;2024-03-25T03:59:39;99938.78;;;9.91;40.70
79131;BME280;72396;45.194;9.142;2024-03-25T04:02:04;99947.22;;;9.99;40.55
79131;BME280;72396;45.194;9.142;2024-03-25T04:04:29;99941.78;;;10.04;40.40
79131;BME280;72396;45.194;9.142;2024-03-25T04:06:55;99928.47;;;10.07;39.98
79131;BME280;72396;45.194;9.142;2024-03-25T04:09:21;99941.09;;;9.99;39.79
79131;BME280;72396;45.194;9.142;2024-03-25T04:11:48;99940.03;;;10.03;39.53
79131;BME280;72396;45.194;9.142;2024-03-25T04:14:14;99951.28;;;10.06;39.51
79131;BME280;72396;45.194;9.142;2024-03-25T04:16:39;99956.84;;;10.00;39.74
79131;BME280;72396;45.194;9.142;2024-03-25T04:19:04;99970.94;;;9.99;41.12
79131;BME280;72396;45.194;9.142;2024-03-25T04:21:30;99971.78;;;10.00;42.24
79131;BME280;72396;45.194;9.142;2024-03-25T04:23:55;99972.47;;;10.05;42.75
79131;BME280;72396;45.194;9.142;2024-03-25T04:26:20;99964.47;;;9.86;43.40
79131;BME280;72396;45.194;9.142;2024-03-25T04:28:46;99968.50;;;9.74;43.14
79131;BME280;72396;45.194;9.142;2024-03-25T04:31:11;99978.47;;;9.65;43.29
79131;BME280;72396;45.194;9.142;2024-03-25T04:33:37;99973.59;;;9.56;43.07
79131;BME280;72396;45.194;9.142;2024-03-25T04:36:02;99978.13;;;9.52;43.52
79131;BME280;72396;45.194;9.142;2024-03-25T04:38:28;99984.34;;;9.50;42.86
79131;BME280;72396;45.194;9.142;2024-03-25T04:40:54;99987.38;;;9.41;43.37
79131;BME280;72396;45.194;9.142;2024-03-25T04:43:19;99984.88;;;9.37;42.96
79131;BME280;72396;45.194;9.142;2024-03-25T04:45:45;99995.16;;;9.44;43.60
79131;BME280;72396;45.194;9.142;2024-03-25T04:48:11;99997.00;;;9.42;43.99
79131;BME280;72396;45.194;9.142;2024-03-25T04:50:36;100000.16;;;9.50;43.21
79131;BME280;72396;45.194;9.142;2024-03-25T04:53:02;100010.94;;;9.44;43.71
79131;BME280;72396;45.194;9.142;2024-03-25T04:55:27;100011.28;;;9.34;43.48
79131;BME280;72396;45.194;9.142;2024-03-25T04:57:53;100006.28;;;9.28;43.19
79131;BME280;72396;45.194;9.142;2024-03-25T05:00:18;100023.81;;;9.28;43.63
79131;BME280;72396;45.194;9.142;2024-03-25T05:02:44;100025.50;;;9.30;43.34
79131;BME280;72396;45.194;9.142;2024-03-25T05:05:09;100022.94;;;9.29;43.31
79131;BME280;72396;45.194;9.142;2024-03-25T05:07:35;100027.44;;;9.25;43.63
79131;BME280;72396;45.194;9.142;2024-03-25T05:10:01;100023.56;;;9.12;43.62
79131;BME280;72396;45.194;9.142;2024-03-25T05:12:26;100031.47;;;9.12;43.65
79131;BME280;72396;45.194;9.142;2024-03-25T05:14:55;100033.19;;;9.13;43.52
79131;BME280;72396;45.194;9.142;2024-03-25T05:17:21;100025.53;;;9.06;43.60
79131;BME280;72396;45.194;9.142;2024-03-25T05:19:46;100035.19;;;9.06;43.91
79131;BME280;72396;45.194;9.142;2024-03-25T05:22:11;100044.63;;;9.12;44.03
79131;BME280;72396;45.194;9.142;2024-03-25T05:24:37;100042.13;;;9.08;43.52
79131;BME280;72396;45.194;9.142;2024-03-25T05:27:02;100047.53;;;9.04;43.71
79131;BME280;72396;45.194;9.142;2024-03-25T05:29:27;100039.31;;;8.89;44.00
79131;BME280;72396;45.194;9.142;2024-03-25T05:31:58;100048.88;;;8.92;43.98
79131;BME280;72396;45.194;9.142;2024-03-25T05:34:24;100050.00;;;8.85;43.94
79131;BME280;72396;45.194;9.142;2024-03-25T05:36:50;100056.00;;;8.88;43.92
79131;BME280;72396;45.194;9.142;2024-03-25T05:39:16;100061.38;;;8.85;44.23
79131;BME280;72396;45.194;9.142;2024-03-25T05:41:41;100048.50;;;8.77;44.13
79131;BME280;72396;45.194;9.142;2024-03-25T05:44:06;100057.84;;;8.86;44.14
79131;BME280;72396;45.194;9.142;2024-03-25T05:46:32;100055.16;;;8.88;44.04
79131;BME280;72396;45.194;9.142;2024-03-25T05:48:57;100063.09;;;8.86;44.24
79131;BME280;72396;45.194;9.142;2024-03-25T05:51:22;100065.56;;;8.91;44.33
79131;BME280;72396;45.194;9.142;2024-03-25T05:53:48;100062.75;;;8.95;44.52
79131;BME280;72396;45.194;9.142;2024-03-25T05:56:13;100064.34;;;9.00;43.94
79131;BME280;72396;45.194;9.142;2024-03-25T05:58:39;100067.81;;;9.00;43.92
79131;BME280;72396;45.194;9.142;2024-03-25T06:01:04;100066.13;;;8.99;44.14
79131;BME280;72396;45.194;9.142;2024-03-25T06:03:30;100075.69;;;9.02;43.50
79131;BME280;72396;45.194;9.142;2024-03-25T06:05:55;100065.16;;;9.02;44.02
79131;BME280;72396;45.194;9.142;2024-03-25T06:08:21;100068.53;;;9.05;43.54
79131;BME280;72396;45.194;9.142;2024-03-25T06:10:50;100077.09;;;9.10;43.53
79131;BME280;72396;45.194;9.142;2024-03-25T06:13:16;100070.25;;;9.06;43.64
79131;BME280;72396;45.194;9.142;2024-03-25T06:15:41;100071.03;;;9.08;43.60
79131;BME280;72396;45.194;9.142;2024-03-25T06:18:07;100076.75;;;9.20;43.89
79131;BME280;72396;45.194;9.142;2024-03-25T06:20:32;100071.22;;;9.50;43.45
79131;BME280;72396;45.194;9.142;2024-03-25T06:22:57;100061.28;;;9.34;43.51
79131;BME280;72396;45.194;9.142;2024-03-25T06:25:23;100056.22;;;9.52;43.08
79131;BME280;72396;45.194;9.142;2024-03-25T06:27:48;100054.69;;;9.24;43.38
79131;BME280;72396;45.194;9.142;2024-03-25T06:30:14;100055.16;;;9.12;43.44
79131;BME280;72396;45.194;9.142;2024-03-25T06:32:57;100062.31;;;9.30;43.36
79131;BME280;72396;45.194;9.142;2024-03-25T06:35:44;100063.91;;;9.34;43.60
79131;BME280;72396;45.194;9.142;2024-03-25T06:38:11;100058.13;;;9.48;43.22
79131;BME280;72396;45.194;9.142;2024-03-25T06:40:36;100057.34;;;9.46;42.80
79131;BME280;72396;45.194;9.142;2024-03-25T06:43:02;100071.91;;;9.55;44.08
79131;BME280;72396;45.194;9.142;2024-03-25T06:45:27;100067.44;;;9.57;43.45
79131;BME280;72396;45.194;9.142;2024-03-25T06:47:53;100082.84;;;9.66;42.81
79131;BME280;72396;45.194;9.142;2024-03-25T06:50:18;100075.84;;;9.67;43.28
79131;BME280;72396;45.194;9.142;2024-03-25T06:52:44;100068.59;;;9.72;42.16
79131;BME280;72396;45.194;9.142;2024-03-25T06:55:09;100069.34;;;9.76;42.14
79131;BME280;72396;45.194;9.142;2024-03-25T06:57:35;100072.75;;;9.78;41.97
79131;BME280;72396;45.194;9.142;2024-03-25T07:00:00;100076.44;;;9.74;42.23
79131;BME280;72396;45.194;9.142;2024-03-25T07:02:26;100076.19;;;9.80;42.21
79131;BME280;72396;45.194;9.142;2024-03-25T07:04:51;100070.00;;;9.81;41.95
79131;BME280;72396;45.194;9.142;2024-03-25T07:07:16;100076.75;;;9.88;41.90
79131;BME280;72396;45.194;9.142;2024-03-25T07:09:42;100075.56;;;9.95;42.25
79131;BME280;72396;45.194;9.142;2024-03-25T07:12:08;100079.66;;;10.03;41.93
79131;BME280;72396;45.194;9.142;2024-03-25T07:14:33;100082.38;;;10.01;41.98
79131;BME280;72396;45.194;9.142;2024-03-25T07:16:59;100073.53;;;10.02;42.30
79131;BME280;72396;45.194;9.142;2024-03-25T07:19:24;100069.06;;;10.04;42.48
79131;BME280;72396;45.194;9.142;2024-03-25T07:21:50;100069.66;;;10.11;43.88
79131;BME280;72396;45.194;9.142;2024-03-25T07:24:15;100074.66;;;10.17;43.23
79131;BME280;72396;45.194;9.142;2024-03-25T07:26:41;100072.44;;;10.29;42.91
79131;BME280;72396;45.194;9.142;2024-03-25T07:29:06;100081.13;;;10.31;43.29
79131;BME280;72396;45.194;9.142;2024-03-25T07:31:31;100064.34;;;10.33;43.30
79131;BME280;72396;45.194;9.142;2024-03-25T07:33:57;100080.06;;;10.14;43.72
79131;BME280;72396;45.194;9.142;2024-03-25T07:36:22;100086.69;;;10.24;43.85
79131;BME280;72396;45.194;9.142;2024-03-25T07:38:47;100076.41;;;10.39;42.21
79131;BME280;72396;45.194;9.142;2024-03-25T07:41:13;100075.38;;;10.43;42.66
79131;BME280;72396;45.194;9.142;2024-03-25T07:43:38;100077.97;;;10.45;42.83
79131;BME280;72396;45.194;9.142;2024-03-25T07:46:03;100081.38;;;10.47;43.17
79131;BME280;72396;45.194;9.142;2024-03-25T07:48:30;100083.56;;;10.58;43.13
79131;BME280;72396;45.194;9.142;2024-03-25T07:50:55;100095.94;;;10.56;44.20
79131;BME280;72396;45.194;9.142;2024-03-25T07:53:20;100092.25;;;10.60;44.12
79131;BME280;72396;45.194;9.142;2024-03-25T07:55:46;100089.56;;;10.61;44.68
79131;BME280;72396;45.194;9.142;2024-03-25T07:58:11;100088.69;;;10.61;44.37
79131;BME280;72396;45.194;9.142;2024-03-25T08:00:36;100083.41;;;10.61;44.61
79131;BME280;72396;45.194;9.142;2024-03-25T08:03:02;100084.94;;;10.66;44.41
79131;BME280;72396;45.194;9.142;2024-03-25T08:05:29;100087.28;;;10.73;43.95
79131;BME280;72396;45.194;9.142;2024-03-25T08:07:55;100097.50;;;10.80;43.94
79131;BME280;72396;45.194;9.142;2024-03-25T08:10:20;100090.00;;;10.71;43.72
79131;BME280;72396;45.194;9.142;2024-03-25T08:12:46;100092.38;;;10.77;43.79
79131;BME280;72396;45.194;9.142;2024-03-25T08:15:11;100089.44;;;10.84;43.52
79131;BME280;72396;45.194;9.142;2024-03-25T08:17:38;100101.31;;;10.94;43.01
79131;BME280;72396;45.194;9.142;2024-03-25T08:20:04;100091.34;;;11.01;42.67
79131;BME280;72396;45.194;9.142;2024-03-25T08:22:30;100091.50;;;10.98;43.02
79131;BME280;72396;45.194;9.142;2024-03-25T08:24:55;100083.63;;;10.96;43.18
79131;BME280;72396;45.194;9.142;2024-03-25T08:27:21;100080.94;;;10.98;43.05
79131;BME280;72396;45.194;9.142;2024-03-25T08:29:46;100086.84;;;11.03;42.94
79131;BME280;72396;45.194;9.142;2024-03-25T08:32:11;100092.84;;;11.06;42.93
79131;BME280;72396;45.194;9.142;2024-03-25T08:34:37;100086.50;;;11.11;42.50
79131;BME280;72396;45.194;9.142;2024-03-25T08:37:02;100086.09;;;11.20;42.15
79131;BME280;72396;45.194;9.142;2024-03-25T08:39:29;100083.50;;;11.18;40.24
79131;BME280;72396;45.194;9.142;2024-03-25T08:41:54;100081.72;;;11.19;41.41
79131;BME280;72396;45.194;9.142;2024-03-25T08:44:19;100089.22;;;11.28;40.61
79131;BME280;72396;45.194;9.142;2024-03-25T08:46:45;100087.31;;;11.32;39.10
79131;BME280;72396;45.194;9.142;2024-03-25T08:49:10;100089.00;;;11.33;38.89
79131;BME280;72396;45.194;9.142;2024-03-25T08:51:35;100088.38;;;11.28;37.88
79131;BME280;72396;45.194;9.142;2024-03-25T08:54:01;100079.38;;;11.32;38.28
79131;BME280;72396;45.194;9.142;2024-03-25T08:56:26;100090.22;;;11.26;37.96
79131;BME280;72396;45.194;9.142;2024-03-25T08:58:51;100078.50;;;11.31;38.33
79131;BME280;72396;45.194;9.142;2024-03-25T09:01:20;100074.88;;;11.34;38.47
79131;BME280;72396;45.194;9.142;2024-03-25T09:03:45;100082.81;;;11.53;38.28
79131;BME280;72396;45.194;9.142;2024-03-25T09:06:10;100072.81;;;11.41;38.29
79131;BME280;72396;45.194;9.142;2024-03-25T09:08:36;100076.88;;;11.48;38.39
79131;BME280;72396;45.194;9.142;2024-03-25T09:11:21;100068.78;;;11.51;38.87
79131;BME280;72396;45.194;9.142;2024-03-25T09:13:50;100077.00;;;11.64;40.16
79131;BME280;72396;45.194;9.142;2024-03-25T09:16:15;100076.91;;;11.65;38.40
79131;BME280;72396;45.194;9.142;2024-03-25T09:18:40;100066.34;;;11.65;39.00
79131;BME280;72396;45.194;9.142;2024-03-25T09:21:06;100063.06;;;11.79;37.92
79131;BME280;72396;45.194;9.142;2024-03-25T09:23:31;100062.03;;;11.82;37.69
79131;BME280;72396;45.194;9.142;2024-03-25T09:25:57;100057.13;;;11.74;37.44
79131;BME280;72396;45.194;9.142;2024-03-25T09:28:22;100054.34;;;11.77;38.95
79131;BME280;72396;45.194;9.142;2024-03-25T09:30:48;100065.63;;;11.99;38.02
79131;BME280;72396;45.194;9.142;2024-03-25T09:33:14;100062.53;;;11.90;38.13
79131;BME280;72396;45.194;9.142;2024-03-25T09:35:39;100059.78;;;11.92;38.68
79131;BME280;72396;45.194;9.142;2024-03-25T09:38:05;100063.00;;;11.99;39.42
79131;BME280;72396;45.194;9.142;2024-03-25T09:40:31;100068.03;;;12.05;38.88
79131;BME280;72396;45.194;9.142;2024-03-25T09:42:56;100053.88;;;12.06;39.22
79131;BME280;72396;45.194;9.142;2024-03-25T09:45:25;100047.50;;;12.10;38.73
79131;BME280;72396;45.194;9.142;2024-03-25T09:47:51;100049.97;;;12.13;38.27
79131;BME280;72396;45.194;9.142;2024-03-25T09:50:17;100040.34;;;12.12;38.87
79131;BME280;72396;45.194;9.142;2024-03-25T09:52:45;100047.81;;;12.21;39.10
79131;BME280;72396;45.194;9.142;2024-03-25T09:55:10;100043.75;;;12.32;40.12
79131;BME280;72396;45.194;9.142;2024-03-25T09:57:36;100038.63;;;12.29;39.29
79131;BME280;72396;45.194;9.142;2024-03-25T10:00:06;100039.31;;;12.32;39.31
79131;BME280;72396;45.194;9.142;2024-03-25T10:02:34;100045.94;;;12.41;39.69
79131;BME280;72396;45.194;9.142;2024-03-25T10:05:01;100033.81;;;12.37;38.74
79131;BME280;72396;45.194;9.142;2024-03-25T10:07:28;100033.31;;;12.46;38.88
79131;BME280;72396;45.194;9.142;2024-03-25T10:09:53;100031.13;;;12.55;39.69
79131;BME280;72396;45.194;9.142;2024-03-25T10:12:19;100037.03;;;12.60;39.81
79131;BME280;72396;45.194;9.142;2024-03-25T10:14:45;100012.81;;;12.68;38.87
79131;BME280;72396;45.194;9.142;2024-03-25T10:17:10;100020.50;;;12.72;37.84
79131;BME280;72396;45.194;9.142;2024-03-25T10:19:37;100022.06;;;12.76;38.36
79131;BME280;72396;45.194;9.142;2024-03-25T10:22:07;100024.22;;;12.68;37.89
79131;BME280;72396;45.194;9.142;2024-03-25T10:24:45;100006.34;;;12.73;38.91
79131;BME280;72396;45.194;9.142;2024-03-25T10:27:18;100009.94;;;12.88;37.76
79131;BME280;72396;45.194;9.142;2024-03-25T10:29:45;100009.25;;;12.85;38.59
79131;BME280;72396;45.194;9.142;2024-03-25T10:32:13;100003.28;;;12.81;38.44
79131;BME280;72396;45.194;9.142;2024-03-25T10:34:38;99995.88;;;12.88;37.92
79131;BME280;72396;45.194;9.142;2024-03-25T10:37:04;100001.94;;;12.90;37.41
79131;BME280;72396;45.194;9.142;2024-03-25T10:39:31;99987.75;;;12.91;39.13
79131;BME280;72396;45.194;9.142;2024-03-25T10:41:58;99983.50;;;13.04;36.33
79131;BME280;72396;45.194;9.142;2024-03-25T10:44:26;99999.53;;;13.01;35.53
79131;BME280;72396;45.194;9.142;2024-03-25T10:46:57;99984.53;;;13.02;34.88
79131;BME280;72396;45.194;9.142;2024-03-25T10:49:48;99990.06;;;12.97;33.33
79131;BME280;72396;45.194;9.142;2024-03-25T10:52:14;99985.81;;;13.11;32.43
79131;BME280;72396;45.194;9.142;2024-03-25T10:54:41;99971.88;;;13.07;33.94
79131;BME280;72396;45.194;9.142;2024-03-25T10:57:09;99978.09;;;13.06;35.06
79131;BME280;72396;45.194;9.142;2024-03-25T10:59:35;99979.38;;;13.15;34.88
79131;BME280;72396;45.194;9.142;2024-03-25T11:02:06;99970.94;;;13.24;35.62
79131;BME280;72396;45.194;9.142;2024-03-25T11:04:32;99971.19;;;13.35;34.54
79131;BME280;72396;45.194;9.142;2024-03-25T11:07:11;99972.53;;;13.43;34.20
79131;BME280;72396;45.194;9.142;2024-03-25T11:09:38;99964.34;;;13.31;35.32
79131;BME280;72396;45.194;9.142;2024-03-25T11:12:03;99969.56;;;13.33;35.37
79131;BME280;72396;45.194;9.142;2024-03-25T11:14:29;99965.53;;;13.42;32.92
79131;BME280;72396;45.194;9.142;2024-03-25T11:16:57;99960.09;;;13.45;30.27
79131;BME280;72396;45.194;9.142;2024-03-25T11:19:26;99967.03;;;13.47;31.20
79131;BME280;72396;45.194;9.142;2024-03-25T11:21:52;99962.47;;;13.49;31.09
79131;BME280;72396;45.194;9.142;2024-03-25T11:24:30;99954.00;;;13.43;32.28
79131;BME280;72396;45.194;9.142;2024-03-25T11:26:55;99951.13;;;13.47;29.94
79131;BME280;72396;45.194;9.142;2024-03-25T11:29:21;99949.13;;;13.51;30.60
79131;BME280;72396;45.194;9.142;2024-03-25T11:31:49;99946.47;;;13.51;30.25
79131;BME280;72396;45.194;9.142;2024-03-25T11:34:15;99936.31;;;13.59;29.36
79131;BME280;72396;45.194;9.142;2024-03-25T11:36:40;99930.69;;;13.49;29.69
79131;BME280;72396;45.194;9.142;2024-03-25T11:39:06;99937.69;;;13.50;30.10
79131;BME280;72396;45.194;9.142;2024-03-25T11:41:39;99929.38;;;13.57;29.86
79131;BME280;72396;45.194;9.142;2024-03-25T11:44:05;99933.97;;;13.69;30.17
79131;BME280;72396;45.194;9.142;2024-03-25T11:46:31;99926.50;;;13.76;28.64
79131;BME280;72396;45.194;9.142;2024-03-25T11:48:56;99918.56;;;13.76;29.46
79131;BME280;72396;45.194;9.142;2024-03-25T11:51:23;99929.00;;;13.93;28.77
79131;BME280;72396;45.194;9.142;2024-03-25T11:53:48;99916.09;;;13.73;29.33
79131;BME280;72396;45.194;9.142;2024-03-25T11:56:14;99927.19;;;13.80;30.65
79131;BME280;72396;45.194;9.142;2024-03-25T11:58:39;99911.94;;;13.83;29.49
79131;BME280;72396;45.194;9.142;2024-03-25T12:01:05;99921.47;;;14.02;28.65
79131;BME280;72396;45.194;9.142;2024-03-25T12:03:31;99916.63;;;13.94;27.71
79131;BME280;72396;45.194;9.142;2024-03-25T12:05:58;99909.91;;;14.03;26.23
79131;BME280;72396;45.194;9.142;2024-03-25T12:08:23;99906.88;;;14.09;26.86
79131;BME280;72396;45.194;9.142;2024-03-25T12:10:51;99920.41;;;14.04;27.40
79131;BME280;72396;45.194;9.142;2024-03-25T12:13:35;99896.94;;;13.98;27.04
79131;BME280;72396;45.194;9.142;2024-03-25T12:16:06;99888.50;;;14.06;27.69
79131;BME280;72396;45.194;9.142;2024-03-25T12:18:33;99891.25;;;14.19;27.70
79131;BME280;72396;45.194;9.142;2024-03-25T12:20:58;99883.22;;;14.35;25.82
79131;BME280;72396;45.194;9.142;2024-03-25T12:23:29;99877.72;;;14.24;24.83
79131;BME280;72396;45.194;9.142;2024-03-25T12:25:54;99878.28;;;14.14;25.45
79131;BME280;72396;45.194;9.142;2024-03-25T12:28:21;99871.25;;;14.13;25.83
79131;BME280;72396;45.194;9.142;2024-03-25T12:30:50;99871.25;;;14.28;25.86
79131;BME280;72396;45.194;9.142;2024-03-25T12:33:16;99860.66;;;14.28;25.81
79131;BME280;72396;45.194;9.142;2024-03-25T12:35:45;99866.16;;;14.39;23.51
79131;BME280;72396;45.194;9.142;2024-03-25T12:38:24;99861.22;;;14.33;24.36
79131;BME280;72396;45.194;9.142;2024-03-25T12:40:49;99864.06;;;14.30;25.43
79131;BME280;72396;45.194;9.142;2024-03-25T12:43:15;99869.84;;;14.37;24.80
79131;BME280;72396;45.194;9.142;2024-03-25T12:45:41;99865.47;;;14.35;26.48
79131;BME280;72396;45.194;9.142;2024-03-25T12:48:07;99844.66;;;14.29;24.89
79131;BME280;72396;45.194;9.142;2024-03-25T12:50:32;99858.34;;;14.50;23.97
79131;BME280;72396;45.194;9.142;2024-03-25T12:52:57;99857.31;;;14.39;25.58